Bill Berry (bbr) — WDB8998 — position and weather

sailwx.info

Track history (hours):
 
Tides and Currents Weather Stations Pressure Air Temp Water Temp Dewpoint Dewpoint Depression Visibility Wind Speed Wind Dir Waves Ship Positions

Bill Berry (bbr)

Owner: Ingram Barge Company LLC, Nashville, TN. More information available from US FCC via Universal Licensing System and Coast Guard Vessel Documentation Center.

Last reported at 2017-Jul-21 19:57 UTC. Time now 2017-Jul-27 18:40 UTC.
Position N 41°10' W 090°60'.

Length 41 m.

Type: Towing. MMSI: 366967630.

Date/timePositionNaut miles runAvg speedWind from/ knotsBaromVisibWave heightAir tempDewpointWater temp
2017-Jul-21 19:57N 41°10' W 090°60'1 3.2
2017-Jul-21 19:28N 41°08' W 090°59'1 1.7
2017-Jul-21 18:53N 41°08' W 090°58'1 2.4
2017-Jul-21 18:30N 41°07' W 090°58'2 3.2
2017-Jul-21 18:00N 41°05' W 090°57'2 3.6
2017-Jul-21 17:30N 41°04' W 090°57'2 3.6
2017-Jul-21 17:00N 41°02' W 090°56'1 2.9
2017-Jul-21 16:30N 41°00' W 090°57'1 1.6
2017-Jul-21 16:00N 40°60' W 090°57'2 3.3
2017-Jul-21 15:30N 40°58' W 090°57'2 4.0
2017-Jul-21 15:00N 40°56' W 090°58'2 3.3
2017-Jul-21 14:30N 40°55' W 090°59'2 3.7
2017-Jul-21 14:00N 40°54' W 091°01'1 1.6
2017-Jul-21 13:30N 40°53' W 091°01'0 0.3
2017-Jul-21 13:00N 40°53' W 091°02'0 0.0
2017-Jul-21 12:30N 40°53' W 091°02'1 1.2
2017-Jul-21 11:59N 40°52' W 091°02'1 1.4
2017-Jul-21 11:30N 40°52' W 091°03'0 0.9
2017-Jul-21 11:00N 40°52' W 091°03'1 2.7
2017-Jul-21 10:30N 40°50' W 091°04'2 4.4
2017-Jul-21 10:00N 40°49' W 091°06'2 3.8
2017-Jul-21 09:30N 40°47' W 091°06'1 1.5
2017-Jul-21 08:59N 40°46' W 091°06'0 0.0
2017-Jul-21 08:30N 40°46' W 091°06'  
Track history (hours):
 
Tides and Currents Weather Stations Pressure Air Temp Water Temp Dewpoint Dewpoint Depression Visibility Wind Speed Wind Dir Waves Ship Positions

Bill Berry (bbr)

Owner: Ingram Barge Company LLC, Nashville, TN. More information available from US FCC via Universal Licensing System and Coast Guard Vessel Documentation Center.

Last reported at 2017-Jul-21 19:57 UTC. Time now 2017-Jul-27 18:40 UTC.
Position N 41°10' W 090°60'.

Length 41 m.

Type: Towing. MMSI: 366967630.

Date/timePositionNaut miles runAvg speedWind from/ knotsBaromVisibWave heightAir tempDewpointWater temp
2017-Jul-21 19:57N 41°10' W 090°60'1 3.2
2017-Jul-21 19:28N 41°08' W 090°59'1 1.7
2017-Jul-21 18:53N 41°08' W 090°58'1 2.4
2017-Jul-21 18:30N 41°07' W 090°58'2 3.2
2017-Jul-21 18:00N 41°05' W 090°57'2 3.6
2017-Jul-21 17:30N 41°04' W 090°57'2 3.6
2017-Jul-21 17:00N 41°02' W 090°56'1 2.9
2017-Jul-21 16:30N 41°00' W 090°57'1 1.6
2017-Jul-21 16:00N 40°60' W 090°57'2 3.3
2017-Jul-21 15:30N 40°58' W 090°57'2 4.0
2017-Jul-21 15:00N 40°56' W 090°58'2 3.3
2017-Jul-21 14:30N 40°55' W 090°59'2 3.7
2017-Jul-21 14:00N 40°54' W 091°01'1 1.6
2017-Jul-21 13:30N 40°53' W 091°01'0 0.3
2017-Jul-21 13:00N 40°53' W 091°02'0 0.0
2017-Jul-21 12:30N 40°53' W 091°02'1 1.2
2017-Jul-21 11:59N 40°52' W 091°02'1 1.4
2017-Jul-21 11:30N 40°52' W 091°03'0 0.9
2017-Jul-21 11:00N 40°52' W 091°03'1 2.7
2017-Jul-21 10:30N 40°50' W 091°04'2 4.4
2017-Jul-21 10:00N 40°49' W 091°06'2 3.8
2017-Jul-21 09:30N 40°47' W 091°06'1 1.5
2017-Jul-21 08:59N 40°46' W 091°06'0 0.0
2017-Jul-21 08:30N 40°46' W 091°06'  

Dump ship's entire track history